createdAt,value
2019-03-26T00:00:53.252Z,97854.31
2019-03-26T00:03:20.671Z,97852.45
2019-03-26T00:05:48.070Z,97853.28
2019-03-26T00:08:15.634Z,97861.36
2019-03-26T00:10:43.027Z,97861.68
2019-03-26T00:13:10.468Z,97855.52
2019-03-26T00:15:37.841Z,97850.48
2019-03-26T00:18:05.224Z,97864.72
2019-03-26T00:20:33.481Z,97859.07
2019-03-26T00:23:00.929Z,97859.72
2019-03-26T00:25:28.322Z,97872.78
2019-03-26T00:27:55.727Z,97849.70
2019-03-26T00:30:23.132Z,97844.94
2019-03-26T00:32:50.532Z,97848.57
2019-03-26T00:35:17.952Z,97856.97
2019-03-26T00:37:45.341Z,97856.12
2019-03-26T00:40:12.757Z,97861.45
2019-03-26T00:42:40.207Z,97863.41
2019-03-26T00:45:07.609Z,97852.54
2019-03-26T00:47:35.021Z,97854.86
2019-03-26T00:50:02.420Z,97851.03
2019-03-26T00:52:29.906Z,97851.27
2019-03-26T00:54:57.308Z,97850.94
2019-03-26T00:57:24.705Z,97847.55
2019-03-26T00:59:52.111Z,97850.52
2019-03-26T01:02:19.627Z,97842.95
2019-03-26T01:04:47.011Z,97839.73
2019-03-26T01:07:14.450Z,97836.28
2019-03-26T01:09:41.848Z,97840.34
2019-03-26T01:14:43.292Z,97844.86
2019-03-26T01:17:10.693Z,97836.97
2019-03-26T01:19:38.092Z,97839.77
2019-03-26T01:22:05.496Z,97844.20
2019-03-26T01:24:33.102Z,97848.20
2019-03-26T01:27:00.496Z,97848.59
2019-03-26T01:29:27.909Z,97847.59
2019-03-26T01:31:55.353Z,97848.30
2019-03-26T01:34:22.755Z,97850.45
2019-03-26T01:36:50.230Z,97856.51
2019-03-26T01:39:17.624Z,97858.28
2019-03-26T01:41:45.079Z,97855.95
2019-03-26T01:44:12.538Z,97859.91
2019-03-26T01:46:39.945Z,97858.05
2019-03-26T01:49:07.360Z,97867.55
2019-03-26T01:51:34.763Z,97867.74
2019-03-26T01:54:02.192Z,97861.54
2019-03-26T01:56:29.609Z,97863.31
2019-03-26T01:58:57.094Z,97867.55
2019-03-26T02:01:24.964Z,97862.00
2019-03-26T02:03:52.358Z,97863.92
2019-03-26T02:06:19.742Z,97870.27
2019-03-26T02:08:47.159Z,97867.28
2019-03-26T02:11:14.562Z,97874.23
2019-03-26T02:13:42.043Z,97877.06
2019-03-26T02:16:09.487Z,97878.72
2019-03-26T02:18:36.872Z,97882.05
2019-03-26T02:21:04.285Z,97891.69
2019-03-26T02:23:31.680Z,97887.39
2019-03-26T02:25:59.213Z,97892.48
2019-03-26T02:28:26.639Z,97892.78
2019-03-26T02:30:54.057Z,97894.05
2019-03-26T02:33:21.472Z,97898.47
2019-03-26T02:35:48.880Z,97889.30
2019-03-26T02:38:16.294Z,97892.03
2019-03-26T02:40:43.693Z,97882.16
2019-03-26T02:43:11.118Z,97882.98
2019-03-26T02:45:38.513Z,97885.14
2019-03-26T02:48:05.919Z,97882.86
2019-03-26T02:50:33.328Z,97880.21
2019-03-26T02:53:00.743Z,97886.53
2019-03-26T02:55:28.139Z,97883.61
2019-03-26T02:57:55.576Z,97885.98
2019-03-26T03:00:23.106Z,97881.06
2019-03-26T03:02:50.441Z,97882.41
2019-03-26T03:05:33.824Z,97874.33
2019-03-26T03:07:45.240Z,97881.38
2019-03-26T03:10:12.638Z,97881.63
2019-03-26T03:12:40.040Z,97883.81
2019-03-26T03:15:07.433Z,97897.80
2019-03-26T03:17:34.831Z,97908.72
2019-03-26T03:20:02.268Z,97901.58
2019-03-26T03:22:29.672Z,97898.48
2019-03-26T03:24:57.085Z,97901.47
2019-03-26T03:27:24.484Z,97899.73
2019-03-26T03:29:51.893Z,97910.16
2019-03-26T03:32:19.518Z,97901.92
2019-03-26T03:34:46.894Z,97908.66
2019-03-26T03:37:14.326Z,97903.87
2019-03-26T03:39:41.719Z,97913.84
2019-03-26T03:42:09.125Z,97922.41
2019-03-26T03:44:36.554Z,97920.41
2019-03-26T03:47:04.036Z,97921.72
2019-03-26T03:49:31.436Z,97920.27
2019-03-26T03:51:58.828Z,97923.29
2019-03-26T03:54:26.731Z,97919.45
2019-03-26T03:56:54.190Z,97923.70
2019-03-26T03:59:21.598Z,97915.53
2019-03-26T04:01:49.073Z,97916.99
2019-03-26T04:04:16.484Z,97927.70
2019-03-26T04:06:43.888Z,97923.39
2019-03-26T04:09:11.325Z,97924.20
2019-03-26T04:11:38.734Z,97919.11
2019-03-26T04:14:06.135Z,97914.91
2019-03-26T04:16:33.553Z,97917.93
2019-03-26T04:19:00.954Z,97915.02
2019-03-26T04:21:28.339Z,97923.67
2019-03-26T04:23:55.754Z,97926.50
2019-03-26T04:26:23.224Z,97923.73
2019-03-26T04:28:50.616Z,97925.14
2019-03-26T04:31:18.072Z,97923.56
2019-03-26T04:33:45.485Z,97921.03
2019-03-26T04:36:24.762Z,97918.58
2019-03-26T04:38:40.301Z,97914.08
2019-03-26T04:41:07.697Z,97911.29
2019-03-26T04:43:35.101Z,97919.52
2019-03-26T04:46:02.488Z,97922.39
2019-03-26T04:48:29.883Z,97915.08
2019-03-26T04:50:57.300Z,97916.00
2019-03-26T04:53:25.255Z,97919.59
2019-03-26T04:55:52.677Z,97919.79
2019-03-26T04:58:20.068Z,97908.89
2019-03-26T05:00:47.462Z,97914.02
2019-03-26T05:03:14.869Z,97915.20
2019-03-26T05:05:42.263Z,97915.97
2019-03-26T05:08:09.656Z,97918.16
2019-03-26T05:10:37.060Z,97927.54
2019-03-26T05:13:04.492Z,97911.88
2019-03-26T05:15:32.051Z,97919.77
2019-03-26T05:17:59.447Z,97924.55
2019-03-26T05:20:26.939Z,97912.72
2019-03-26T05:22:54.354Z,97922.79
2019-03-26T05:25:21.784Z,97926.39
2019-03-26T05:27:49.309Z,97920.41
2019-03-26T05:30:16.777Z,97926.22
2019-03-26T05:32:44.207Z,97918.30
2019-03-26T05:35:11.598Z,97932.33
2019-03-26T05:37:38.987Z,97925.13
2019-03-26T05:40:06.400Z,97928.50
2019-03-26T05:42:34.154Z,97927.31
2019-03-26T05:45:01.586Z,97933.02
2019-03-26T05:47:29.061Z,97929.80
2019-03-26T05:49:56.878Z,97929.45
2019-03-26T05:52:24.293Z,97935.13
2019-03-26T05:54:51.698Z,97950.14
2019-03-26T05:57:19.262Z,97942.02
2019-03-26T05:59:46.712Z,97945.36
2019-03-26T06:02:17.862Z,97944.20
2019-03-26T06:04:41.603Z,97941.17
2019-03-26T06:07:09.590Z,97943.08
2019-03-26T06:09:37.003Z,97945.74
2019-03-26T06:12:04.416Z,97948.02
2019-03-26T06:14:31.900Z,97948.84
2019-03-26T06:16:59.298Z,97952.46
2019-03-26T06:19:26.700Z,97958.64
2019-03-26T06:21:54.123Z,97957.30
2019-03-26T06:24:22.276Z,97952.26
2019-03-26T06:26:49.764Z,97955.25
2019-03-26T06:29:17.227Z,97955.29
2019-03-26T06:31:44.670Z,97960.05
2019-03-26T06:34:12.144Z,97957.86
2019-03-26T06:36:39.584Z,97969.97
2019-03-26T06:39:07.009Z,97955.83
2019-03-26T06:41:34.411Z,97965.63
2019-03-26T06:44:01.823Z,97974.23
2019-03-26T06:46:29.247Z,97969.28
2019-03-26T06:48:58.023Z,97970.69
2019-03-26T06:51:25.444Z,97973.80
2019-03-26T06:53:52.862Z,97978.77
2019-03-26T06:56:20.264Z,97980.55
2019-03-26T06:58:48.705Z,97989.95
2019-03-26T07:01:16.100Z,97992.30
2019-03-26T07:03:43.601Z,97979.27
2019-03-26T07:06:11.020Z,97999.97
2019-03-26T07:08:38.418Z,97995.67
2019-03-26T07:11:05.823Z,97993.45
2019-03-26T07:13:33.219Z,97996.30
2019-03-26T07:16:00.701Z,97998.28
2019-03-26T07:18:28.128Z,97994.79
2019-03-26T07:20:55.576Z,98010.39
2019-03-26T07:23:22.972Z,97999.23
2019-03-26T07:25:50.383Z,97986.38
2019-03-26T07:28:17.833Z,97998.31
2019-03-26T07:30:45.254Z,97996.20
2019-03-26T07:33:12.653Z,97992.25
2019-03-26T07:35:40.064Z,97992.70
2019-03-26T07:38:07.466Z,97993.62
2019-03-26T07:40:34.883Z,97975.56
2019-03-26T07:43:02.378Z,97967.19
2019-03-26T07:45:30.041Z,97966.22
2019-03-26T07:47:58.018Z,97980.75
2019-03-26T07:50:25.423Z,97965.63
2019-03-26T07:52:52.817Z,97960.41
2019-03-26T07:55:20.983Z,97976.97
2019-03-26T07:57:48.383Z,97959.00
2019-03-26T08:00:15.821Z,97981.82
2019-03-26T08:02:43.277Z,97969.32
2019-03-26T08:05:10.805Z,97970.35
2019-03-26T08:07:38.218Z,97976.33
2019-03-26T08:10:06.439Z,97960.31
2019-03-26T08:12:33.853Z,97973.90
2019-03-26T08:15:01.255Z,97980.98
2019-03-26T08:17:28.675Z,97982.05
2019-03-26T08:19:56.122Z,97979.08
2019-03-26T08:22:23.654Z,97984.41
2019-03-26T08:24:51.164Z,97985.45
2019-03-26T08:27:18.606Z,97984.84
2019-03-26T08:29:45.990Z,97990.55
2019-03-26T08:32:13.387Z,97977.31
2019-03-26T08:34:40.832Z,97988.51
2019-03-26T08:37:07.960Z,97970.52
2019-03-26T08:39:35.358Z,97972.41
2019-03-26T08:42:02.759Z,97972.06
2019-03-26T08:44:30.251Z,97988.33
2019-03-26T08:46:57.831Z,97985.62
2019-03-26T08:49:30.649Z,97989.64
2019-03-26T08:51:52.718Z,97985.75
2019-03-26T08:54:20.122Z,97982.61
2019-03-26T08:56:47.530Z,97990.59
2019-03-26T08:59:14.920Z,97991.63
2019-03-26T09:01:42.377Z,97991.77
2019-03-26T09:04:09.799Z,97991.25
2019-03-26T09:06:37.243Z,97996.78
2019-03-26T09:09:04.652Z,98002.44
2019-03-26T09:11:32.162Z,97984.76
2019-03-26T09:13:59.718Z,97997.84
2019-03-26T09:16:27.122Z,98003.10
2019-03-26T09:18:54.535Z,97994.19
2019-03-26T09:21:21.972Z,97992.77
2019-03-26T09:23:49.419Z,98006.23
2019-03-26T09:26:16.883Z,98002.87
2019-03-26T09:28:44.304Z,98003.77
2019-03-26T09:31:11.826Z,98010.80
2019-03-26T09:33:39.251Z,98011.16
2019-03-26T09:36:06.704Z,98012.84
2019-03-26T09:38:39.050Z,98020.79
2019-03-26T09:41:02.431Z,98023.02
2019-03-26T09:43:30.372Z,98022.20
2019-03-26T09:45:58.303Z,98007.70
2019-03-26T09:48:25.709Z,98016.16
2019-03-26T09:50:53.138Z,98024.28
2019-03-26T09:53:20.555Z,98020.21
2019-03-26T09:55:48.004Z,98018.25
2019-03-26T09:58:15.481Z,98012.22
2019-03-26T10:00:43.024Z,98030.81
2019-03-26T10:03:10.506Z,98016.08
2019-03-26T10:05:38.355Z,98011.91
2019-03-26T10:08:05.764Z,98014.64
2019-03-26T10:10:33.263Z,98019.28
2019-03-26T10:13:00.654Z,98013.08
2019-03-26T10:15:28.056Z,98003.52
2019-03-26T10:17:55.066Z,98000.33
2019-03-26T10:20:22.135Z,97998.45
2019-03-26T10:22:49.275Z,98001.16
2019-03-26T10:25:16.319Z,98003.88
2019-03-26T10:27:43.353Z,97988.00
2019-03-26T10:30:10.850Z,97977.56
2019-03-26T10:32:37.856Z,97981.31
2019-03-26T10:35:04.847Z,97999.67
2019-03-26T10:37:32.929Z,97990.08
2019-03-26T10:39:59.916Z,98001.52
2019-03-26T10:42:26.884Z,98006.21
2019-03-26T10:44:54.291Z,97987.45
2019-03-26T10:47:21.714Z,97989.95
2019-03-26T10:49:48.728Z,97981.45
2019-03-26T10:52:15.725Z,97992.64
2019-03-26T10:54:43.258Z,98001.83
2019-03-26T10:57:10.230Z,97996.87
2019-03-26T10:59:37.217Z,97990.34
2019-03-26T11:02:04.632Z,97992.29
2019-03-26T11:04:32.035Z,97980.67
2019-03-26T11:06:59.481Z,97998.52
2019-03-26T11:09:27.379Z,98008.17
2019-03-26T11:11:54.318Z,98004.59
2019-03-26T11:14:22.102Z,97989.05
2019-03-26T11:16:49.824Z,97977.00
2019-03-26T11:19:17.401Z,97993.42
2019-03-26T11:21:44.822Z,97990.58
2019-03-26T11:24:12.229Z,97975.81
2019-03-26T11:26:40.135Z,97973.32
2019-03-26T11:29:08.470Z,97973.44
2019-03-26T11:31:35.910Z,97972.84
2019-03-26T11:34:03.364Z,97973.34
2019-03-26T11:36:30.790Z,97969.77
2019-03-26T11:38:58.197Z,97971.11
2019-03-26T11:41:25.649Z,97964.58
2019-03-26T11:43:53.081Z,97985.42
2019-03-26T11:46:20.610Z,97970.00
2019-03-26T11:48:47.977Z,97972.95
2019-03-26T11:51:15.565Z,97984.47
2019-03-26T11:53:43.003Z,97969.09
2019-03-26T11:56:10.747Z,97988.13
2019-03-26T11:58:38.187Z,97980.72
2019-03-26T12:01:05.575Z,97979.86
2019-03-26T12:03:32.974Z,97960.90
2019-03-26T12:06:00.584Z,97970.82
2019-03-26T12:08:28.048Z,97976.05
2019-03-26T12:10:55.451Z,97978.42
2019-03-26T12:13:22.885Z,97982.14
2019-03-26T12:15:50.345Z,97980.98
2019-03-26T12:18:18.321Z,97978.36
2019-03-26T12:20:45.820Z,97985.02
2019-03-26T12:23:13.334Z,97978.41
2019-03-26T12:25:40.283Z,97967.84
2019-03-26T12:28:07.739Z,97964.20
2019-03-26T12:30:35.176Z,97967.69
2019-03-26T12:33:02.582Z,97977.45
2019-03-26T12:35:29.988Z,97978.63
2019-03-26T12:37:57.965Z,97975.04
2019-03-26T12:40:25.421Z,97973.11
2019-03-26T12:42:52.831Z,97951.37
2019-03-26T12:45:20.273Z,97944.04
2019-03-26T12:47:47.697Z,97948.19
2019-03-26T12:50:15.256Z,97944.50
2019-03-26T12:52:42.952Z,97938.54
2019-03-26T12:55:10.346Z,97935.34
2019-03-26T12:57:37.766Z,97935.75
2019-03-26T13:00:06.238Z,97938.78
2019-03-26T13:02:35.799Z,97948.66
2019-03-26T13:05:01.760Z,97934.38
2019-03-26T13:07:29.297Z,97938.14
2019-03-26T13:09:56.685Z,97940.77
2019-03-26T13:12:24.097Z,97941.22
2019-03-26T13:14:51.613Z,97933.34
2019-03-26T13:17:18.926Z,97941.10
2019-03-26T13:19:46.379Z,97939.12
2019-03-26T13:22:13.769Z,97925.03
2019-03-26T13:24:41.175Z,97912.23
2019-03-26T13:27:08.585Z,97921.52
2019-03-26T13:29:36.001Z,97902.67
2019-03-26T13:32:03.431Z,97913.34
2019-03-26T13:34:30.849Z,97902.98
2019-03-26T13:36:58.268Z,97907.42
2019-03-26T13:39:25.816Z,97909.11
2019-03-26T13:41:53.155Z,97908.16
2019-03-26T13:44:20.607Z,97898.45
2019-03-26T13:46:48.007Z,97908.02
2019-03-26T13:49:15.418Z,97905.82
2019-03-26T13:51:43.010Z,97900.09
2019-03-26T13:54:10.404Z,97901.91
2019-03-26T13:56:37.817Z,97902.75
2019-03-26T13:59:05.753Z,97893.48
2019-03-26T14:01:33.159Z,97905.81
2019-03-26T14:04:00.695Z,97892.13
2019-03-26T14:06:28.115Z,97892.38
2019-03-26T14:08:55.506Z,97893.23
2019-03-26T14:11:22.919Z,97889.44
2019-03-26T14:13:50.305Z,97897.94
2019-03-26T14:16:17.739Z,97890.70
2019-03-26T14:18:45.141Z,97893.12
2019-03-26T14:21:12.537Z,97891.59
2019-03-26T14:23:39.947Z,97893.81
2019-03-26T14:26:07.368Z,97899.91
2019-03-26T14:28:34.799Z,97884.50
2019-03-26T14:31:02.208Z,97899.13
2019-03-26T14:33:29.742Z,97888.65
2019-03-26T14:35:57.169Z,97889.92
2019-03-26T14:38:24.564Z,97885.80
2019-03-26T14:40:55.037Z,97886.70
2019-03-26T14:43:19.386Z,97888.97
2019-03-26T14:45:46.815Z,97879.61
2019-03-26T14:48:14.232Z,97887.14
2019-03-26T14:50:41.674Z,97883.97
2019-03-26T14:53:09.103Z,97888.98
2019-03-26T14:55:36.640Z,97886.00
2019-03-26T14:58:04.027Z,97886.25
2019-03-26T15:00:31.450Z,97886.33
2019-03-26T15:02:58.859Z,97889.74
2019-03-26T15:05:26.259Z,97895.94
2019-03-26T15:07:53.667Z,97889.85
2019-03-26T15:10:23.465Z,97894.55
2019-03-26T15:12:48.521Z,97887.98
2019-03-26T15:15:15.984Z,97890.52
2019-03-26T15:17:44.838Z,97889.79
2019-03-26T15:20:13.121Z,97898.54
2019-03-26T15:22:40.502Z,97891.77
2019-03-26T15:25:07.939Z,97890.81
2019-03-26T15:27:35.379Z,97889.84
2019-03-26T15:30:02.791Z,97882.92
2019-03-26T15:32:30.207Z,97878.85
2019-03-26T15:34:57.607Z,97874.87
2019-03-26T15:37:25.003Z,97878.75
2019-03-26T15:39:52.401Z,97867.94
2019-03-26T15:42:19.841Z,97876.00
2019-03-26T15:44:47.223Z,97872.80
2019-03-26T15:47:14.643Z,97873.12
2019-03-26T15:49:42.047Z,97870.11
2019-03-26T15:52:09.468Z,97874.36
2019-03-26T15:54:36.982Z,97868.34
2019-03-26T15:57:04.398Z,97858.81
2019-03-26T15:59:31.936Z,97852.02
2019-03-26T16:01:59.333Z,97853.83
2019-03-26T16:04:26.755Z,97856.25
2019-03-26T16:06:54.236Z,97853.54
2019-03-26T16:09:21.696Z,97859.30
2019-03-26T16:11:49.350Z,97850.88
2019-03-26T16:14:16.743Z,97856.08
2019-03-26T16:16:44.215Z,97861.20
2019-03-26T16:19:11.663Z,97853.52
2019-03-26T16:21:39.112Z,97861.77
2019-03-26T16:24:06.659Z,97857.73
2019-03-26T16:26:34.100Z,97859.16
2019-03-26T16:29:01.509Z,97853.16
2019-03-26T16:31:28.979Z,97866.23
2019-03-26T16:33:56.413Z,97854.08
2019-03-26T16:36:23.939Z,97862.05
2019-03-26T16:38:51.550Z,97868.61
2019-03-26T16:41:18.939Z,97866.15
2019-03-26T16:43:47.972Z,97865.14
2019-03-26T16:46:15.380Z,97872.90
2019-03-26T16:48:42.826Z,97861.55
2019-03-26T16:51:10.348Z,97861.83
2019-03-26T16:53:37.762Z,97865.95
2019-03-26T16:56:05.195Z,97862.50
2019-03-26T16:58:32.664Z,97863.86
2019-03-26T17:01:00.102Z,97866.75
2019-03-26T17:03:31.597Z,97863.69
2019-03-26T17:05:55.382Z,97870.89
2019-03-26T17:08:23.308Z,97857.95
2019-03-26T17:10:51.929Z,97860.41
2019-03-26T17:13:19.347Z,97872.73
2019-03-26T17:15:46.943Z,97874.47
2019-03-26T17:18:14.570Z,97878.81
2019-03-26T17:20:42.071Z,97881.64
2019-03-26T17:23:09.574Z,97884.12
2019-03-26T17:25:37.017Z,97882.81
2019-03-26T17:28:04.462Z,97883.80
2019-03-26T17:30:31.894Z,97888.23
2019-03-26T17:32:59.351Z,97885.58
2019-03-26T17:35:26.935Z,97893.09
2019-03-26T17:37:59.889Z,97902.88
2019-03-26T17:40:21.864Z,97904.39
2019-03-26T17:42:49.313Z,97909.11
2019-03-26T17:45:16.880Z,97900.93
2019-03-26T17:47:44.296Z,97892.75
2019-03-26T17:50:11.721Z,97907.36
2019-03-26T17:52:39.186Z,97903.65
2019-03-26T17:55:06.575Z,97906.75
2019-03-26T17:57:33.992Z,97911.70
2019-03-26T18:00:01.445Z,97902.95
2019-03-26T18:02:29.003Z,97913.86
2019-03-26T18:04:56.461Z,97911.63
2019-03-26T18:07:23.892Z,97921.96
2019-03-26T18:09:51.950Z,97921.98
2019-03-26T18:12:30.109Z,97913.08
2019-03-26T18:14:46.917Z,97927.03
2019-03-26T18:17:14.350Z,97921.36
2019-03-26T18:19:41.914Z,97928.29
2019-03-26T18:22:09.375Z,97920.49
2019-03-26T18:24:37.866Z,97925.05
2019-03-26T18:27:05.405Z,97933.38
2019-03-26T18:29:32.743Z,97946.05
2019-03-26T18:32:00.171Z,97939.31
2019-03-26T18:34:27.575Z,97938.27
2019-03-26T18:36:55.566Z,97944.98
2019-03-26T18:39:23.943Z,97960.69
2019-03-26T18:41:51.388Z,97949.20
2019-03-26T18:44:18.857Z,97957.59
2019-03-26T18:46:46.317Z,97959.45
2019-03-26T18:49:14.106Z,97962.27
2019-03-26T18:51:41.580Z,97964.66
2019-03-26T18:54:08.996Z,97969.22
2019-03-26T18:56:36.399Z,97970.54
2019-03-26T18:59:04.025Z,97983.67
2019-03-26T19:01:31.476Z,97975.92
2019-03-26T19:03:58.886Z,97976.03
2019-03-26T19:06:26.299Z,97986.23
2019-03-26T19:08:53.745Z,97988.84
2019-03-26T19:11:21.143Z,97989.33
2019-03-26T19:13:48.562Z,98000.09
2019-03-26T19:16:16.063Z,98008.00
2019-03-26T19:18:43.476Z,98003.33
2019-03-26T19:21:10.919Z,98003.84
2019-03-26T19:23:38.327Z,98005.20
2019-03-26T19:26:05.742Z,97996.52
2019-03-26T19:28:33.138Z,98007.30
2019-03-26T19:31:01.351Z,98002.97
2019-03-26T19:33:28.734Z,98002.00
2019-03-26T19:35:56.252Z,98010.70
2019-03-26T19:38:24.086Z,98009.70
2019-03-26T19:40:51.479Z,98006.06
2019-03-26T19:43:19.698Z,98018.13
2019-03-26T19:45:47.183Z,98014.14
2019-03-26T19:48:14.590Z,98023.86
2019-03-26T19:50:41.989Z,98025.40
2019-03-26T19:53:09.396Z,98025.78
2019-03-26T19:55:36.816Z,98029.23
2019-03-26T19:58:04.220Z,98028.91
2019-03-26T20:00:31.678Z,98024.80
2019-03-26T20:02:59.087Z,98032.74
2019-03-26T20:05:26.496Z,98043.39
2019-03-26T20:07:54.807Z,98037.36
2019-03-26T20:10:22.295Z,98043.24
2019-03-26T20:12:49.595Z,98042.81
2019-03-26T20:15:16.998Z,98032.69
2019-03-26T20:17:44.387Z,98031.05
2019-03-26T20:20:11.816Z,98021.07
2019-03-26T20:22:39.214Z,98026.44
2019-03-26T20:25:06.627Z,98032.55
2019-03-26T20:27:34.047Z,98029.70
2019-03-26T20:30:01.519Z,98029.45
2019-03-26T20:32:28.899Z,98039.53
2019-03-26T20:34:56.329Z,98039.55
2019-03-26T20:37:23.743Z,98041.13
2019-03-26T20:39:52.119Z,98040.09
2019-03-26T20:42:19.560Z,98050.59
2019-03-26T20:44:46.954Z,98036.83
2019-03-26T20:47:14.548Z,98045.59
2019-03-26T20:49:41.951Z,98044.46
2019-03-26T20:52:09.359Z,98031.45
2019-03-26T20:54:36.850Z,98046.83
2019-03-26T20:57:04.398Z,98044.64
2019-03-26T20:59:31.903Z,98054.72
2019-03-26T21:01:59.705Z,98053.12
2019-03-26T21:04:27.103Z,98059.69
2019-03-26T21:06:54.512Z,98053.03
2019-03-26T21:09:21.920Z,98064.37
2019-03-26T21:11:49.342Z,98068.20
2019-03-26T21:14:16.753Z,98070.02
2019-03-26T21:16:44.264Z,98071.63
2019-03-26T21:19:11.643Z,98074.27
2019-03-26T21:21:39.087Z,98072.97
2019-03-26T21:24:06.508Z,98066.95
2019-03-26T21:26:33.918Z,98084.39
2019-03-26T21:29:01.373Z,98084.85
2019-03-26T21:31:28.780Z,98093.53
2019-03-26T21:33:56.240Z,98091.84
2019-03-26T21:36:23.642Z,98100.22
2019-03-26T21:38:51.034Z,98108.05
2019-03-26T21:41:18.428Z,98113.20
2019-03-26T21:43:45.817Z,98114.88
2019-03-26T21:46:13.312Z,98117.45
2019-03-26T21:48:40.788Z,98124.53
2019-03-26T21:51:09.062Z,98126.05
2019-03-26T21:53:36.486Z,98135.02
2019-03-26T21:56:06.701Z,98132.58
2019-03-26T21:58:31.399Z,98134.63
2019-03-26T22:00:58.824Z,98133.87
2019-03-26T22:03:26.307Z,98140.53
2019-03-26T22:05:53.728Z,98145.50
2019-03-26T22:08:21.119Z,98153.54
2019-03-26T22:10:48.609Z,98141.53
2019-03-26T22:13:16.033Z,98138.16
2019-03-26T22:15:43.429Z,98139.85
2019-03-26T22:18:10.878Z,98148.14
2019-03-26T22:20:38.370Z,98141.23
2019-03-26T22:23:05.974Z,98145.20
2019-03-26T22:25:33.419Z,98141.66
2019-03-26T22:28:00.853Z,98145.91
2019-03-26T22:30:28.272Z,98139.38
2019-03-26T22:32:55.675Z,98140.48
2019-03-26T22:35:23.096Z,98139.16
2019-03-26T22:37:50.532Z,98140.16
2019-03-26T22:40:17.980Z,98143.70
2019-03-26T22:42:45.386Z,98138.77
2019-03-26T22:45:12.776Z,98136.46
2019-03-26T22:47:40.505Z,98136.58
2019-03-26T22:50:07.987Z,98137.73
2019-03-26T22:52:35.380Z,98137.09
2019-03-26T22:55:02.873Z,98130.31
2019-03-26T22:57:30.279Z,98133.76
2019-03-26T22:59:57.698Z,98133.91
2019-03-26T23:02:25.115Z,98126.84
2019-03-26T23:04:52.535Z,98126.27
2019-03-26T23:07:19.945Z,98129.63
2019-03-26T23:09:47.335Z,98127.70
2019-03-26T23:12:14.754Z,98125.77
2019-03-26T23:14:45.403Z,98116.97
2019-03-26T23:17:09.567Z,98122.12
2019-03-26T23:19:36.967Z,98118.53
2019-03-26T23:22:04.458Z,98116.89
2019-03-26T23:24:31.875Z,98111.67
2019-03-26T23:26:59.426Z,98116.39
2019-03-26T23:29:26.960Z,98119.50
2019-03-26T23:31:54.349Z,98113.06
2019-03-26T23:34:21.748Z,98119.08
2019-03-26T23:36:49.155Z,98112.72
2019-03-26T23:39:17.018Z,98117.98
2019-03-26T23:41:44.424Z,98116.22
2019-03-26T23:44:24.969Z,98107.42
2019-03-26T23:46:39.241Z,98103.76
2019-03-26T23:49:06.642Z,98093.31
2019-03-26T23:51:34.061Z,98092.30
2019-03-26T23:54:01.455Z,98095.30
2019-03-26T23:56:28.857Z,98096.77
2019-03-26T23:58:56.465Z,98084.89
